createdAt,value
2022-12-11T00:01:45.573Z,99.90
2022-12-11T00:06:53.743Z,99.90
2022-12-11T00:12:03.322Z,99.90
2022-12-11T00:17:09.501Z,99.90
2022-12-11T00:22:16.432Z,99.90
2022-12-11T00:27:22.959Z,99.90
2022-12-11T00:32:32.614Z,99.90
2022-12-11T00:37:38.882Z,99.90
2022-12-11T00:42:45.780Z,99.90
2022-12-11T00:47:51.982Z,99.90
2022-12-11T00:52:58.957Z,99.90
2022-12-11T00:58:05.563Z,99.90
2022-12-11T01:03:15.860Z,99.90
2022-12-11T01:08:22.781Z,99.90
2022-12-11T01:13:29.599Z,99.90
2022-12-11T01:18:36.372Z,99.90
2022-12-11T01:23:43.130Z,99.90
2022-12-11T01:28:51.608Z,99.90
2022-12-11T01:33:58.673Z,99.90
2022-12-11T01:39:05.991Z,99.90
2022-12-11T01:44:21.754Z,99.90
2022-12-11T01:49:30.722Z,99.90
2022-12-11T01:54:38.097Z,99.90
2022-12-11T01:59:48.429Z,99.90
2022-12-11T02:04:54.504Z,99.90
2022-12-11T02:10:02.130Z,99.90
2022-12-11T02:15:25.885Z,99.90
2022-12-11T02:20:42.524Z,99.90
2022-12-11T02:26:16.464Z,99.90
2022-12-11T02:31:58.432Z,99.90
2022-12-11T02:37:09.330Z,99.90
2022-12-11T02:42:16.743Z,99.90
2022-12-11T02:47:24.355Z,99.90
2022-12-11T02:52:34.401Z,99.90
2022-12-11T02:57:50.885Z,99.90
2022-12-11T03:02:59.017Z,99.90
2022-12-11T03:08:05.413Z,99.90
2022-12-11T03:13:17.261Z,99.90
2022-12-11T03:18:50.461Z,99.90
2022-12-11T03:24:13.752Z,99.90
2022-12-11T03:29:27.682Z,99.90
2022-12-11T03:34:45.258Z,99.90
2022-12-11T03:39:55.646Z,99.90
2022-12-11T03:45:04.001Z,99.90
2022-12-11T03:50:14.583Z,99.90
2022-12-11T03:55:22.866Z,99.90
2022-12-11T04:00:29.848Z,99.90
2022-12-11T04:05:36.236Z,99.90
2022-12-11T04:10:43.742Z,99.90
2022-12-11T04:15:50.020Z,99.90
2022-12-11T04:21:15.724Z,99.90
2022-12-11T04:26:23.170Z,99.90
2022-12-11T04:31:30.171Z,99.90
2022-12-11T04:36:36.582Z,99.90
2022-12-11T04:41:43.731Z,99.90
2022-12-11T04:46:50.277Z,99.90
2022-12-11T04:51:56.998Z,99.90
2022-12-11T04:57:04.274Z,99.90
2022-12-11T05:02:09.938Z,99.90
2022-12-11T05:07:16.771Z,99.90
2022-12-11T05:12:23.995Z,99.90
2022-12-11T05:17:30.326Z,99.90
2022-12-11T05:22:36.934Z,99.90
2022-12-11T05:27:43.294Z,99.90
2022-12-11T05:32:49.821Z,99.90
2022-12-11T05:37:56.552Z,99.90
2022-12-11T05:43:03.552Z,99.90
2022-12-11T05:48:09.682Z,99.90
2022-12-11T05:53:16.826Z,99.90
2022-12-11T05:58:23.944Z,99.90
2022-12-11T06:03:30.361Z,99.90
2022-12-11T06:08:37.860Z,99.90
2022-12-11T06:13:44.171Z,99.90
2022-12-11T06:18:51.210Z,99.90
2022-12-11T06:24:00.002Z,99.90
2022-12-11T06:29:10.950Z,99.90
2022-12-11T06:34:15.061Z,99.90
2022-12-11T06:39:21.925Z,99.90
2022-12-11T06:44:28.947Z,99.90
2022-12-11T06:49:35.887Z,99.90
2022-12-11T06:54:42.470Z,99.90
2022-12-11T06:59:48.970Z,99.90
2022-12-11T07:04:55.911Z,99.90
2022-12-11T07:10:07.959Z,99.90
2022-12-11T07:15:12.179Z,99.90
2022-12-11T07:20:19.657Z,99.90
2022-12-11T07:25:26.444Z,99.90
2022-12-11T07:30:31.699Z,99.90
2022-12-11T07:35:39.430Z,99.90
2022-12-11T07:40:45.574Z,99.90
2022-12-11T07:45:52.931Z,99.90
2022-12-11T07:51:22.885Z,99.90
2022-12-11T07:56:31.557Z,99.90
2022-12-11T08:01:39.283Z,99.90
2022-12-11T08:06:45.894Z,99.90
2022-12-11T08:11:54.076Z,99.90
2022-12-11T08:17:02.007Z,99.90
2022-12-11T08:22:09.202Z,99.90
2022-12-11T08:27:15.622Z,99.90
2022-12-11T08:32:23.538Z,99.90
2022-12-11T08:37:30.564Z,99.90
2022-12-11T08:42:37.226Z,99.90
2022-12-11T08:47:44.833Z,99.90
2022-12-11T08:52:51.377Z,99.90
2022-12-11T08:57:58.229Z,99.90
2022-12-11T09:03:08.486Z,99.90
2022-12-11T09:08:14.577Z,76.90
2022-12-11T09:13:22.425Z,99.90
2022-12-11T09:18:29.808Z,99.90
2022-12-11T09:23:36.414Z,93.10
2022-12-11T09:28:46.268Z,44.40
2022-12-11T09:33:52.124Z,90.40
2022-12-11T09:39:03.473Z,40.50
2022-12-11T09:44:20.217Z,55.70
2022-12-11T09:49:31.943Z,1.00
2022-12-11T09:54:38.878Z,7.00
2022-12-11T10:00:06.304Z,1.00
2022-12-11T10:05:24.147Z,1.00
2022-12-11T10:10:44.598Z,1.00
2022-12-11T10:16:01.282Z,1.00
2022-12-11T10:21:07.971Z,1.00
2022-12-11T10:26:21.428Z,1.00
2022-12-11T10:31:47.569Z,1.00
2022-12-11T10:37:00.438Z,1.00
2022-12-11T10:42:08.681Z,1.00
2022-12-11T10:47:19.300Z,1.00
2022-12-11T10:52:38.210Z,1.00
2022-12-11T10:57:45.358Z,1.00
2022-12-11T11:02:52.610Z,1.00
2022-12-11T11:08:19.469Z,1.00
2022-12-11T11:13:30.981Z,1.00
2022-12-11T11:18:37.653Z,1.00
2022-12-11T11:23:51.880Z,1.00
2022-12-11T11:28:59.507Z,99.90
2022-12-11T11:34:12.970Z,1.00
2022-12-11T11:39:38.497Z,99.90
2022-12-11T11:44:52.125Z,99.90
2022-12-11T11:50:17.630Z,1.00
2022-12-11T11:55:31.451Z,1.00
2022-12-11T12:00:38.218Z,99.90
2022-12-11T12:05:59.874Z,99.90
2022-12-11T12:11:11.378Z,1.00
2022-12-11T12:16:53.768Z,99.90
2022-12-11T12:22:05.051Z,99.90
2022-12-11T12:27:50.635Z,99.90
2022-12-11T12:32:48.985Z,1.00
2022-12-11T12:38:18.976Z,99.90
2022-12-11T12:43:46.144Z,1.00
2022-12-11T12:48:54.461Z,99.90
2022-12-11T12:54:09.018Z,1.00
2022-12-11T12:59:29.272Z,1.00
2022-12-11T13:04:55.974Z,12.00
2022-12-11T13:10:03.493Z,1.00
2022-12-11T13:15:31.309Z,1.00
2022-12-11T13:20:44.219Z,1.00
2022-12-11T13:25:57.650Z,1.00
2022-12-11T13:31:17.652Z,99.90
2022-12-11T13:36:29.158Z,1.00
2022-12-11T13:41:38.812Z,1.00
2022-12-11T13:46:45.676Z,1.00
2022-12-11T13:51:59.740Z,1.00
2022-12-11T13:57:13.766Z,1.00
2022-12-11T14:02:35.960Z,1.00
2022-12-11T14:08:00.732Z,1.00
2022-12-11T14:13:28.761Z,89.50
2022-12-11T14:18:39.024Z,1.00
2022-12-11T14:23:56.755Z,1.00
2022-12-11T14:29:03.197Z,1.00
2022-12-11T14:34:22.591Z,99.90
2022-12-11T14:39:51.763Z,93.70
2022-12-11T14:45:09.061Z,99.90
2022-12-11T14:50:25.639Z,99.90
2022-12-11T14:55:36.073Z,99.90
2022-12-11T15:00:42.295Z,99.90
2022-12-11T15:05:54.586Z,99.90
2022-12-11T15:11:13.895Z,1.00
2022-12-11T15:16:22.057Z,99.90
2022-12-11T15:21:34.986Z,99.90
2022-12-11T15:26:50.190Z,1.00
2022-12-11T15:32:15.609Z,99.90
2022-12-11T15:37:31.806Z,99.90
2022-12-11T15:42:42.003Z,99.90
2022-12-11T15:47:49.978Z,1.00
2022-12-11T15:52:58.470Z,1.00
2022-12-11T15:58:11.686Z,1.00
2022-12-11T16:03:21.077Z,1.00
2022-12-11T16:08:27.979Z,1.00
2022-12-11T16:13:34.843Z,1.00
2022-12-11T16:18:41.310Z,1.00
2022-12-11T16:23:47.809Z,1.00
2022-12-11T16:28:54.404Z,1.00
2022-12-11T16:34:01.043Z,1.00
2022-12-11T16:39:08.678Z,1.00
2022-12-11T16:44:14.771Z,1.00
2022-12-11T16:49:22.242Z,1.00
2022-12-11T16:54:28.612Z,1.00
2022-12-11T16:59:37.482Z,1.00
2022-12-11T17:04:47.029Z,1.00
2022-12-11T17:09:53.096Z,1.00
2022-12-11T17:15:00.189Z,1.00
2022-12-11T17:20:07.782Z,1.00
2022-12-11T17:25:16.887Z,1.00
2022-12-11T17:30:23.640Z,1.00
2022-12-11T17:35:30.316Z,1.00
2022-12-11T17:40:38.794Z,1.00
2022-12-11T17:45:47.530Z,1.00
2022-12-11T17:50:55.086Z,1.00
2022-12-11T17:56:07.225Z,99.90
2022-12-11T18:01:15.614Z,1.00
2022-12-11T18:06:23.660Z,99.90
2022-12-11T18:11:30.863Z,99.90
2022-12-11T18:16:39.267Z,99.90
2022-12-11T18:21:47.276Z,99.90
2022-12-11T18:26:54.172Z,99.90
2022-12-11T18:32:00.768Z,99.90
2022-12-11T18:37:07.351Z,99.90
2022-12-11T18:47:23.557Z,1.00
2022-12-11T18:52:29.795Z,99.90
2022-12-11T18:57:36.315Z,99.90
2022-12-11T19:02:42.801Z,99.90
2022-12-11T19:07:50.114Z,1.00
2022-12-11T19:12:57.202Z,1.00
2022-12-11T19:18:05.112Z,1.00
2022-12-11T19:23:11.871Z,1.00
2022-12-11T19:28:19.885Z,1.00
2022-12-11T19:33:26.535Z,1.00
2022-12-11T19:38:33.905Z,1.00
2022-12-11T19:43:40.625Z,1.00
2022-12-11T19:48:49.721Z,1.00
2022-12-11T19:53:56.775Z,1.00
2022-12-11T19:59:09.746Z,99.90
2022-12-11T20:04:20.644Z,99.90
2022-12-11T20:09:27.691Z,1.00
2022-12-11T20:14:33.279Z,99.90
2022-12-11T20:19:39.957Z,99.90
2022-12-11T20:24:48.160Z,99.90
2022-12-11T20:29:55.435Z,1.00
2022-12-11T20:35:02.093Z,99.90
2022-12-11T20:40:11.121Z,99.90
2022-12-11T20:45:18.572Z,1.00
2022-12-11T20:50:25.923Z,1.00
2022-12-11T20:55:32.952Z,1.00
2022-12-11T21:00:40.476Z,1.00
2022-12-11T21:05:48.139Z,1.00
2022-12-11T21:10:54.620Z,1.00
2022-12-11T21:16:06.627Z,1.00
2022-12-11T21:21:16.145Z,1.00
2022-12-11T21:26:24.053Z,1.00
2022-12-11T21:31:31.860Z,1.00
2022-12-11T21:36:39.953Z,1.00
2022-12-11T21:41:46.344Z,1.00
2022-12-11T21:46:53.353Z,1.00
2022-12-11T21:52:00.611Z,1.00
2022-12-11T21:57:07.971Z,1.00
2022-12-11T22:02:15.745Z,1.00
2022-12-11T22:07:24.542Z,1.00
2022-12-11T22:12:30.152Z,1.00
2022-12-11T22:17:37.801Z,1.00
2022-12-11T22:22:45.274Z,1.00
2022-12-11T22:27:52.794Z,1.00
2022-12-11T22:32:59.235Z,1.00
2022-12-11T22:38:06.580Z,1.00
2022-12-11T22:43:13.665Z,1.00
2022-12-11T22:48:20.101Z,1.00
2022-12-11T22:53:26.534Z,1.00
2022-12-11T22:58:33.392Z,1.00
2022-12-11T23:03:39.135Z,1.00
2022-12-11T23:08:46.630Z,1.00
2022-12-11T23:13:53.361Z,1.00
2022-12-11T23:19:01.002Z,1.00
2022-12-11T23:24:08.215Z,1.00
2022-12-11T23:29:14.630Z,1.00
2022-12-11T23:34:22.037Z,1.00
2022-12-11T23:39:29.171Z,1.00
2022-12-11T23:44:35.599Z,1.00
2022-12-11T23:49:42.632Z,1.00
2022-12-11T23:54:49.256Z,1.00
2022-12-11T23:59:54.671Z,1.00
